FW0050 Weather Reports


Display with metric or nautical units.
time (UTC)temp
F
wind
direction
speed
MPH
gust
MPH
rain 1hr
in
rain 24hr
in
rain mn
in
humidity
%
barometer
mb
20210926045412 56 299 0.0 0.0 0.00 0.01 0.01 96 1012.6
20210926043417 57 298 0.0 0.0 0.00 0.01 0.01 95 1012.8
20210926041916 57 298 0.0 0.0 0.00 0.01 0.01 95 1012.7
20210926035933 57 298 0.0 0.0 0.00 0.01 0.01 95 1012.6
20210926034413 57 298 0.0 0.0 0.00 0.01 0.01 95 1012.6
20210926032428 58 298 0.0 0.0 0.00 0.01 0.01 94 1012.5
20210926030911 58 296 0.0 0.0 0.00 0.01 0.01 94 1012.5
20210926025412 58 296 0.0 0.0 0.00 0.01 0.01 94 1012.3
20210926023427 59 296 0.0 0.0 0.00 0.01 0.01 93 1012.2
20210926021434 59 297 0.0 0.0 0.00 0.01 0.01 93 1011.9
20210926015900 60 295 0.0 0.0 0.00 0.01 0.01 91 1011.9
20210926013914 60 295 0.0 1.0 0.00 0.01 0.01 90 1011.8
20210926012404 61 295 0.0 0.0 0.00 0.01 0.01 89 1011.7
20210926010424 62 295 0.0 1.0 0.00 0.01 0.01 87 1011.5
20210926004922 63 294 0.0 0.0 0.00 0.01 0.01 84 1011.3
20210926003014 65 294 0.0 0.0 0.00 0.01 0.01 83 1011.2
20210926000918 67 294 0.0 0.0 0.00 0.01 0.01 78 1011.1
20210925235413 69 294 0.0 0.0 0.00 0.01 0.01 74 1011.1
20210925233903 71 295 0.0 0.0 0.00 0.01 0.01 71 1011.1
20210925231934 75 297 0.0 2.0 0.00 0.01 0.01 61 1011.0
20210925230410 75 304 2.0 3.0 0.00 0.01 0.01 56 1010.9
20210925224442 76 308 3.0 6.0 0.00 0.01 0.01 55 1010.8
20210925222431 77 305 3.0 5.0 0.00 0.01 0.01 50 1010.6
20210925220433 77 318 3.0 6.0 0.00 0.01 0.01 49 1010.5
20210925214921 77 324 3.0 6.0 0.00 0.01 0.01 48 1010.5
20210925213421 78 300 5.0 8.0 0.00 0.01 0.01 48 1010.4
20210925211911 77 315 4.0 7.0 0.00 0.01 0.01 48 1010.5
20210925210405 77 347 3.0 6.0 0.00 0.01 0.01 48 1010.5
20210925204431 77 317 4.0 7.0 0.00 0.01 0.01 48 1010.7
20210925202922 77 264 3.0 7.0 0.00 0.01 0.01 51 1011.0
20210925200914 77 178 2.0 11.0 0.00 0.01 0.01 47 1011.2
20210925195404 77 314 5.0 9.0 0.00 0.01 0.01 48 1011.2
20210925193413 77 185 1.0 8.0 0.00 0.01 0.01 46 1011.2
20210925191416 76 1 3.0 6.0 0.00 0.01 0.01 47 1011.4
20210925185906 76 301 4.0 8.0 0.00 0.01 0.01 50 1011.8
20210925183933 76 290 2.0 9.0 0.00 0.01 0.01 52 1012.2
20210925182003 75 300 5.0 8.0 0.00 0.01 0.01 52 1012.4
20210925175932 75 319 4.0 11.0 0.00 0.01 0.01 53 1012.6
20210925173922 74 32 5.0 12.0 0.00 0.01 0.01 56 1012.7
20210925171932 74 357 4.0 9.0 0.00 0.01 0.01 55 1012.8
20210925165920 74 23 8.0 14.0 0.00 0.01 0.01 55 1013.0
20210925164406 73 15 0.0 7.0 0.00 0.01 0.01 57 1013.1
20210925162435 73 12 5.0 13.0 0.00 0.01 0.01 57 1013.2
20210925160913 73 1 5.0 9.0 0.00 0.01 0.01 56 1013.2
20210925155407 73 318 3.0 4.0 0.00 0.01 0.01 60 1013.1
20210925153435 71 245 0.0 2.0 0.00 0.01 0.01 67 1013.1
20210925151427 69 124 1.0 3.0 0.00 0.01 0.01 71 1013.2
20210925145926 67 136 1.0 3.0 0.00 0.01 0.01 72 1013.4
20210925143919 65 70 1.0 5.0 0.00 0.01 0.01 76 1013.4
20210925142419 64 94 2.0 4.0 0.01 0.01 0.01 80 1013.5
20210925140914 62 105 0.0 3.0 0.01 0.01 0.01 83 1013.7
20210925134921 60 74 2.0 5.0 0.01 0.01 0.01 86 1013.8
20210925132934 58 113 2.0 3.0 0.00 0.00 0.00 90 1014.0
20210925131413 57 84 2.0 4.0 0.00 0.00 0.00 91 1013.8
20210925125903 55 117 0.0 0.0 0.00 0.00 0.00 93 1013.8
20210925123933 53 91 0.0 0.0 0.00 0.00 0.00 97 1013.6
20210925122430 52 312 0.0 0.0 0.00 0.00 0.00 97 1013.7
20210925120416 51 315 0.0 0.0 0.00 0.00 0.00 97 1013.4
20210925114913 51 315 0.0 0.0 0.00 0.00 0.00 96 1013.4
20210925112909 51 338 0.0 0.0 0.00 0.00 0.00 96 1012.9
20210925110924 51 325 0.0 0.0 0.00 0.00 0.00 96 1012.6
20210925105420 51 328 0.0 0.0 0.00 0.01 0.00 96 1012.8
20210925103914 51 97 0.0 0.0 0.00 0.01 0.00 96 1012.4
20210925101917 51 103 0.0 0.0 0.00 0.01 0.00 96 1012.1
20210925100242 52 98 0.0 0.0 0.00 0.01 0.00 97 1012.0
20210925093930 51 102 0.0 0.0 0.00 0.01 0.00 97 1011.8
20210925092411 51 308 0.0 0.0 0.00 0.01 0.00 97 1012.1
20210925090907 51 313 0.0 0.0 0.00 0.01 0.00 96 1011.9
20210925084931 52 313 0.0 0.0 0.00 0.01 0.00 96 1011.9
20210925082928 52 314 0.0 0.0 0.00 0.01 0.00 97 1012.0
20210925080916 52 312 0.0 0.0 0.00 0.01 0.00 96 1012.2
20210925075409 52 312 0.0 0.0 0.00 0.01 0.00 96 1012.3
20210925073418 52 313 0.0 0.0 0.00 0.01 0.00 96 1012.3
20210925071409 52 313 0.0 0.0 0.00 0.01 0.00 96 1012.2
20210925065903 52 312 0.0 0.0 0.00 0.01 0.00 96 1012.1
20210925063918 53 313 0.0 0.0 0.00 0.01 0.00 96 1012.0
20210925061928 53 313 0.0 0.0 0.00 0.01 0.00 96 1012.1
20210925055931 53 313 0.0 0.0 0.00 0.01 0.00 96 1012.2
20210925053914 53 313 0.0 0.0 0.00 0.01 0.00 96 1012.0
20210925051911 53 306 0.0 0.0 0.00 0.01 0.00 96 1011.9
20210925050025 53 306 0.0 0.0 0.00 0.01 0.00 95 1012.2